createdAt,value
2018-03-14T17:28:46.857Z,7.13
2018-03-14T17:31:14.356Z,7.00
2018-03-14T17:33:41.866Z,7.57
2018-03-14T17:36:09.411Z,7.22
2018-03-14T17:38:36.914Z,6.63
2018-03-14T17:41:04.442Z,7.00
2018-03-14T17:43:31.968Z,6.43
2018-03-14T17:46:00.280Z,7.10
2018-03-14T17:48:27.836Z,6.53
2018-03-14T17:50:55.308Z,7.00
2018-03-14T17:53:22.830Z,6.27
2018-03-14T17:58:08.858Z,13.23
2018-03-14T18:00:36.388Z,12.77
2018-03-14T18:03:04.681Z,13.63
2018-03-14T18:05:32.233Z,13.00
2018-03-14T18:07:59.751Z,13.13
2018-03-14T18:10:27.270Z,13.97
2018-03-14T18:12:55.095Z,13.83
2018-03-14T18:15:22.643Z,12.70
2018-03-14T18:17:50.133Z,14.03
2018-03-14T18:20:17.774Z,14.17
2018-03-14T18:22:45.322Z,13.40
2018-03-14T18:25:13.655Z,14.73
2018-03-14T18:27:41.210Z,14.03
2018-03-14T18:30:08.719Z,15.80
2018-03-14T18:32:36.222Z,15.80
2018-03-14T18:35:03.762Z,11.10
2018-03-14T18:37:31.263Z,12.37
2018-03-14T18:39:58.774Z,16.67
2018-03-14T18:42:27.080Z,9.77
2018-03-14T18:44:54.595Z,9.37
2018-03-14T18:47:22.103Z,9.33
2018-03-14T18:49:49.627Z,9.73
2018-03-14T18:52:17.182Z,8.90
2018-03-14T18:54:44.714Z,9.67
2018-03-14T18:57:12.228Z,9.33
2018-03-14T18:59:39.727Z,10.23
2018-03-14T19:02:07.299Z,9.53
2018-03-14T19:04:34.802Z,9.07
2018-03-14T19:07:02.307Z,9.37
2018-03-14T19:09:30.033Z,9.57
2018-03-14T19:11:57.538Z,10.50
2018-03-14T19:14:25.054Z,11.53
2018-03-14T19:16:52.709Z,12.27
2018-03-14T19:19:20.219Z,13.67
2018-03-14T19:21:47.729Z,13.40
2018-03-14T19:24:15.244Z,14.07
2018-03-14T19:26:42.760Z,13.83
2018-03-14T19:29:10.280Z,14.23
2018-03-14T19:31:37.840Z,14.37
2018-03-14T19:34:06.123Z,14.27
2018-03-14T19:36:33.631Z,14.30
2018-03-14T19:39:01.301Z,13.37
2018-03-14T19:41:29.488Z,14.43
2018-03-14T19:43:57.000Z,14.67
2018-03-14T19:46:24.539Z,14.00
2018-03-14T19:48:52.050Z,14.23
2018-03-14T19:51:19.608Z,15.33
2018-03-14T19:53:47.138Z,16.40
2018-03-14T19:56:14.654Z,16.60
2018-03-14T19:58:42.162Z,18.47
2018-03-14T20:01:09.675Z,18.70
2018-03-14T20:03:37.189Z,19.23
2018-03-14T20:06:04.696Z,18.37
2018-03-14T20:08:32.987Z,18.93
2018-03-14T20:11:00.495Z,18.37
2018-03-14T20:13:28.008Z,20.20
2018-03-14T20:15:55.534Z,20.77
2018-03-14T20:18:23.046Z,21.60
2018-03-14T20:20:50.545Z,20.13
2018-03-14T20:23:18.074Z,20.87
2018-03-14T20:25:45.584Z,19.20
2018-03-14T20:28:13.868Z,19.37
2018-03-14T20:30:41.379Z,18.77
2018-03-14T20:33:08.943Z,18.80
2018-03-14T20:35:36.460Z,20.00
2018-03-14T20:38:03.982Z,20.00
2018-03-14T20:40:31.487Z,20.57
2018-03-14T20:42:59.014Z,20.37
2018-03-14T20:45:27.299Z,20.87
2018-03-14T20:47:54.803Z,20.17
2018-03-14T20:50:22.327Z,21.80
2018-03-14T20:52:49.838Z,21.53
2018-03-14T20:55:17.352Z,21.40
2018-03-14T20:57:44.923Z,22.60
2018-03-14T21:00:12.436Z,21.73
2018-03-14T21:02:41.050Z,21.83
2018-03-14T21:05:08.551Z,21.17
2018-03-14T21:07:36.074Z,21.87
2018-03-14T21:10:03.624Z,19.90
2018-03-14T21:12:31.130Z,20.90
2018-03-14T21:14:58.627Z,20.47
2018-03-14T21:17:26.159Z,20.10
2018-03-14T21:19:53.679Z,17.47
2018-03-14T21:22:21.232Z,17.63
2018-03-14T21:24:48.796Z,16.67
2018-03-14T21:27:16.313Z,16.53
2018-03-14T21:29:44.596Z,16.07
2018-03-14T21:32:12.143Z,14.73
2018-03-14T21:34:40.428Z,15.37
2018-03-14T21:37:07.946Z,14.73
2018-03-14T21:39:35.686Z,14.37
2018-03-14T21:42:03.196Z,14.17
2018-03-14T21:44:30.695Z,14.27
2018-03-14T21:46:58.344Z,14.23
2018-03-14T21:49:25.776Z,13.33
2018-03-14T21:51:53.355Z,14.73
2018-03-14T21:54:20.850Z,13.87
2018-03-14T21:56:48.364Z,13.37
2018-03-14T21:59:16.013Z,13.70
2018-03-14T22:01:43.540Z,13.00
2018-03-14T22:04:11.051Z,12.87
2018-03-14T22:06:38.582Z,13.87
2018-03-14T22:09:06.124Z,12.63
2018-03-14T22:11:33.698Z,13.33
2018-03-14T22:14:01.162Z,12.57
2018-03-14T22:16:29.466Z,11.87
2018-03-14T22:18:57.738Z,12.43
2018-03-14T22:21:25.253Z,11.80
2018-03-14T22:23:52.787Z,11.83
2018-03-14T22:26:20.300Z,12.53
2018-03-14T22:28:47.806Z,12.27
2018-03-14T22:31:15.310Z,12.10
2018-03-14T22:33:42.822Z,12.37
2018-03-14T22:36:10.334Z,12.13
2018-03-14T22:38:37.846Z,11.33
2018-03-14T22:41:05.349Z,11.40
2018-03-14T22:43:32.859Z,11.73
2018-03-14T22:46:00.568Z,11.20
2018-03-14T22:48:28.070Z,11.80
2018-03-14T22:50:55.594Z,11.07
2018-03-14T22:53:23.148Z,11.73
2018-03-14T22:55:50.660Z,10.87
2018-03-14T22:58:18.174Z,17.37
2018-03-14T23:00:45.749Z,11.47
2018-03-14T23:03:13.276Z,15.17
2018-03-14T23:05:40.796Z,10.77
2018-03-14T23:08:08.336Z,10.90
2018-03-14T23:10:35.864Z,12.60
2018-03-14T23:13:03.399Z,11.43
2018-03-14T23:15:30.957Z,11.73
2018-03-14T23:17:58.474Z,11.73
2018-03-14T23:20:25.996Z,11.50
2018-03-14T23:22:53.536Z,11.30
2018-03-14T23:25:21.047Z,12.40
2018-03-14T23:27:48.563Z,12.10
2018-03-14T23:30:16.115Z,12.10
2018-03-14T23:32:43.624Z,11.43
2018-03-14T23:35:11.130Z,12.70
2018-03-14T23:37:38.646Z,12.07
2018-03-14T23:40:06.154Z,13.77
2018-03-14T23:42:33.704Z,12.63
2018-03-14T23:45:01.233Z,11.80
2018-03-14T23:47:28.740Z,11.77
2018-03-14T23:49:56.277Z,11.77
2018-03-14T23:52:23.789Z,11.90
2018-03-14T23:54:51.298Z,12.03
2018-03-14T23:57:18.831Z,12.20
2018-03-14T23:59:46.335Z,12.53
